CheckWX is a tool to help pilots better visualize weather data.  It is not intended as a substitute for an official pre-flight weather briefing.

06:48:49 UTC

C65 METAR
Plymouth Municipal Airport
Plymouth, Indiana, USA
Current

34 mins ago

KC65 230615Z AUTO 19010G15KT 10SM FEW055 BKN065 BKN075 18/10 A2987 RMK A01
Observed
Apr-23 @ 06:15 UTC
Wind
  • 190° at 10 KTS
  • Gusting to 15 KTS
Visibility
10 SM
Flight Rules
VFR
Cloud Levels
  • Few at 5,500' AGL
  • Broken at 6,500' AGL
  • Broken at 7,500' AGL
Temperature
18°C / 64°F
Dewpoint
10°C / 50°F
Humidity
60%
Altimeter
29.87" Hg
Pressure
1011.52 hPa
Previous

54 mins ago

KC65 230555Z AUTO 18009G16KT 10SM FEW050 FEW060 18/10 A2987 RMK A01
Observed
Apr-23 @ 05:55 UTC
Wind
  • 180° at 9 KTS
  • Gusting to 16 KTS
Visibility
10 SM
Flight Rules
VFR
Cloud Levels
  • Few at 5,000' AGL
  • Few at 6,000' AGL
Temperature
18°C / 64°F
Dewpoint
10°C / 50°F
Humidity
60%
Altimeter
29.87" Hg
Pressure
1011.52 hPa
Previous

1 hour ago

KC65 230535Z AUTO 18013KT 10SM CLR 18/10 A2987 RMK A01
Observed
Apr-23 @ 05:35 UTC
Wind
  • 180° at 13 KTS
Visibility
10 SM
Flight Rules
VFR
Cloud Levels
  • Clear skies
Temperature
18°C / 64°F
Dewpoint
10°C / 50°F
Humidity
60%
Altimeter
29.87" Hg
Pressure
1011.52 hPa